sensor_id;sensor_type;location;lat;lon;timestamp;temperature;humidity
24412;DHT22;12544;46.760;15.942;2024-02-21T00:01:05;6.30;99.90
24412;DHT22;12544;46.760;15.942;2024-02-21T00:03:31;5.90;99.90
24412;DHT22;12544;46.760;15.942;2024-02-21T00:06:08;5.70;99.90
24412;DHT22;12544;46.760;15.942;2024-02-21T00:08:34;5.40;99.90
24412;DHT22;12544;46.760;15.942;2024-02-21T00:11:00;5.20;99.90
24412;DHT22;12544;46.760;15.942;2024-02-21T00:13:25;5.00;99.90
24412;DHT22;12544;46.760;15.942;2024-02-21T00:15:51;5.00;99.90
24412;DHT22;12544;46.760;15.942;2024-02-21T00:18:16;5.00;99.90
24412;DHT22;12544;46.760;15.942;2024-02-21T00:24:04;5.00;99.90
24412;DHT22;12544;46.760;15.942;2024-02-21T00:26:30;5.00;99.90
24412;DHT22;12544;46.760;15.942;2024-02-21T00:28:55;4.90;99.90
24412;DHT22;12544;46.760;15.942;2024-02-21T00:31:21;4.80;99.90
24412;DHT22;12544;46.760;15.942;2024-02-21T00:37:09;4.70;99.90
24412;DHT22;12544;46.760;15.942;2024-02-21T00:39:34;4.50;99.90
24412;DHT22;12544;46.760;15.942;2024-02-21T00:42:01;4.40;99.90
24412;DHT22;12544;46.760;15.942;2024-02-21T00:44:26;4.40;99.90
24412;DHT22;12544;46.760;15.942;2024-02-21T00:50:14;4.30;99.90
24412;DHT22;12544;46.760;15.942;2024-02-21T00:52:39;4.40;99.90
24412;DHT22;12544;46.760;15.942;2024-02-21T00:55:05;4.40;99.90
24412;DHT22;12544;46.760;15.942;2024-02-21T00:57:31;4.60;99.90
24412;DHT22;12544;46.760;15.942;2024-02-21T00:59:57;4.60;99.90
24412;DHT22;12544;46.760;15.942;2024-02-21T01:02:23;4.40;99.90
24412;DHT22;12544;46.760;15.942;2024-02-21T01:04:48;4.40;99.90
24412;DHT22;12544;46.760;15.942;2024-02-21T01:07:14;4.30;99.90
24412;DHT22;12544;46.760;15.942;2024-02-21T01:09:40;4.20;99.90
24412;DHT22;12544;46.760;15.942;2024-02-21T01:12:06;4.00;99.90
24412;DHT22;12544;46.760;15.942;2024-02-21T01:14:32;3.90;99.90
24412;DHT22;12544;46.760;15.942;2024-02-21T01:16:57;3.90;99.90
24412;DHT22;12544;46.760;15.942;2024-02-21T01:19:23;3.80;99.90
24412;DHT22;12544;46.760;15.942;2024-02-21T01:21:48;3.80;99.90
24412;DHT22;12544;46.760;15.942;2024-02-21T01:24:14;3.70;99.90
24412;DHT22;12544;46.760;15.942;2024-02-21T01:26:40;3.70;99.90
24412;DHT22;12544;46.760;15.942;2024-02-21T01:29:06;3.70;99.90
24412;DHT22;12544;46.760;15.942;2024-02-21T01:31:32;3.70;99.90
24412;DHT22;12544;46.760;15.942;2024-02-21T01:33:57;3.70;99.90
24412;DHT22;12544;46.760;15.942;2024-02-21T01:36:23;3.80;99.90
24412;DHT22;12544;46.760;15.942;2024-02-21T01:38:49;4.00;99.90
24412;DHT22;12544;46.760;15.942;2024-02-21T01:41:14;4.10;99.90
24412;DHT22;12544;46.760;15.942;2024-02-21T01:43:41;4.20;99.90
24412;DHT22;12544;46.760;15.942;2024-02-21T01:46:08;4.30;99.90
24412;DHT22;12544;46.760;15.942;2024-02-21T01:48:34;4.30;99.90
24412;DHT22;12544;46.760;15.942;2024-02-21T01:51:01;4.30;99.90
24412;DHT22;12544;46.760;15.942;2024-02-21T01:53:34;4.30;99.90
24412;DHT22;12544;46.760;15.942;2024-02-21T01:56:02;4.30;99.90
24412;DHT22;12544;46.760;15.942;2024-02-21T01:58:30;4.20;99.90
24412;DHT22;12544;46.760;15.942;2024-02-21T02:00:57;4.10;99.90
24412;DHT22;12544;46.760;15.942;2024-02-21T02:03:23;4.00;99.90
24412;DHT22;12544;46.760;15.942;2024-02-21T02:05:51;4.00;99.90
24412;DHT22;12544;46.760;15.942;2024-02-21T02:08:20;3.90;99.90
24412;DHT22;12544;46.760;15.942;2024-02-21T02:10:47;3.90;99.90
24412;DHT22;12544;46.760;15.942;2024-02-21T02:13:13;4.00;99.90
24412;DHT22;12544;46.760;15.942;2024-02-21T02:18:09;4.30;99.90
24412;DHT22;12544;46.760;15.942;2024-02-21T02:20:35;4.50;99.90
24412;DHT22;12544;46.760;15.942;2024-02-21T02:26:22;4.70;99.90
24412;DHT22;12544;46.760;15.942;2024-02-21T02:28:48;4.90;99.90
24412;DHT22;12544;46.760;15.942;2024-02-21T02:31:14;5.00;99.90
24412;DHT22;12544;46.760;15.942;2024-02-21T02:33:39;5.00;99.90
24412;DHT22;12544;46.760;15.942;2024-02-21T02:36:05;5.10;99.90
24412;DHT22;12544;46.760;15.942;2024-02-21T02:38:31;5.00;99.90
24412;DHT22;12544;46.760;15.942;2024-02-21T02:40:57;5.10;99.90
24412;DHT22;12544;46.760;15.942;2024-02-21T02:43:22;5.20;99.90
24412;DHT22;12544;46.760;15.942;2024-02-21T02:45:48;5.30;99.90
24412;DHT22;12544;46.760;15.942;2024-02-21T02:48:13;5.20;99.90
24412;DHT22;12544;46.760;15.942;2024-02-21T02:50:39;4.70;99.90
24412;DHT22;12544;46.760;15.942;2024-02-21T02:53:04;4.10;99.90
24412;DHT22;12544;46.760;15.942;2024-02-21T02:55:30;3.80;99.90
24412;DHT22;12544;46.760;15.942;2024-02-21T02:57:56;3.70;99.90
24412;DHT22;12544;46.760;15.942;2024-02-21T03:00:22;3.50;99.90
24412;DHT22;12544;46.760;15.942;2024-02-21T03:02:49;3.40;99.90
24412;DHT22;12544;46.760;15.942;2024-02-21T03:05:19;3.20;99.90
24412;DHT22;12544;46.760;15.942;2024-02-21T03:07:46;3.10;99.90
24412;DHT22;12544;46.760;15.942;2024-02-21T03:10:12;3.10;99.90
24412;DHT22;12544;46.760;15.942;2024-02-21T03:12:38;3.20;99.90
24412;DHT22;12544;46.760;15.942;2024-02-21T03:15:05;3.30;99.90
24412;DHT22;12544;46.760;15.942;2024-02-21T03:17:31;3.40;99.90
24412;DHT22;12544;46.760;15.942;2024-02-21T03:19:58;3.40;99.90
24412;DHT22;12544;46.760;15.942;2024-02-21T03:22:25;3.40;99.90
24412;DHT22;12544;46.760;15.942;2024-02-21T03:24:51;3.70;99.90
24412;DHT22;12544;46.760;15.942;2024-02-21T03:27:16;3.90;99.90
24412;DHT22;12544;46.760;15.942;2024-02-21T03:33:04;4.40;99.90
24412;DHT22;12544;46.760;15.942;2024-02-21T03:35:30;4.50;99.90
24412;DHT22;12544;46.760;15.942;2024-02-21T03:37:55;4.50;99.90
24412;DHT22;12544;46.760;15.942;2024-02-21T03:40:21;4.40;99.90
24412;DHT22;12544;46.760;15.942;2024-02-21T03:42:47;4.20;99.90
24412;DHT22;12544;46.760;15.942;2024-02-21T03:45:12;4.20;99.90
24412;DHT22;12544;46.760;15.942;2024-02-21T03:47:38;4.20;99.90
24412;DHT22;12544;46.760;15.942;2024-02-21T03:50:05;4.30;99.90
24412;DHT22;12544;46.760;15.942;2024-02-21T03:52:31;4.20;99.90
24412;DHT22;12544;46.760;15.942;2024-02-21T03:54:56;4.10;99.90
24412;DHT22;12544;46.760;15.942;2024-02-21T03:57:22;4.20;99.90
24412;DHT22;12544;46.760;15.942;2024-02-21T03:59:50;4.40;99.90
24412;DHT22;12544;46.760;15.942;2024-02-21T04:02:17;4.70;99.90
24412;DHT22;12544;46.760;15.942;2024-02-21T04:04:44;4.90;99.90
24412;DHT22;12544;46.760;15.942;2024-02-21T04:07:12;5.00;99.90
24412;DHT22;12544;46.760;15.942;2024-02-21T04:09:38;5.10;99.90
24412;DHT22;12544;46.760;15.942;2024-02-21T04:12:04;5.20;99.90
24412;DHT22;12544;46.760;15.942;2024-02-21T04:14:30;5.20;99.90
24412;DHT22;12544;46.760;15.942;2024-02-21T04:16:55;5.30;99.90
24412;DHT22;12544;46.760;15.942;2024-02-21T04:19:21;5.30;99.90
24412;DHT22;12544;46.760;15.942;2024-02-21T04:21:47;5.40;99.90
24412;DHT22;12544;46.760;15.942;2024-02-21T04:24:12;5.40;99.90
24412;DHT22;12544;46.760;15.942;2024-02-21T04:26:38;5.00;99.90
24412;DHT22;12544;46.760;15.942;2024-02-21T04:29:04;4.90;99.90
24412;DHT22;12544;46.760;15.942;2024-02-21T04:31:31;4.90;99.90
24412;DHT22;12544;46.760;15.942;2024-02-21T04:33:57;4.90;99.90
24412;DHT22;12544;46.760;15.942;2024-02-21T04:36:22;4.90;99.90
24412;DHT22;12544;46.760;15.942;2024-02-21T04:38:49;4.80;99.90
24412;DHT22;12544;46.760;15.942;2024-02-21T04:41:15;4.60;99.90
24412;DHT22;12544;46.760;15.942;2024-02-21T04:43:41;4.30;99.90
24412;DHT22;12544;46.760;15.942;2024-02-21T04:46:06;4.00;99.90
24412;DHT22;12544;46.760;15.942;2024-02-21T04:48:32;3.60;99.90
24412;DHT22;12544;46.760;15.942;2024-02-21T04:50:58;3.40;99.90
24412;DHT22;12544;46.760;15.942;2024-02-21T04:53:24;3.30;99.90
24412;DHT22;12544;46.760;15.942;2024-02-21T04:55:50;3.10;99.90
24412;DHT22;12544;46.760;15.942;2024-02-21T04:58:16;3.10;99.90
24412;DHT22;12544;46.760;15.942;2024-02-21T05:00:41;3.00;99.90
24412;DHT22;12544;46.760;15.942;2024-02-21T05:03:07;3.00;99.90
24412;DHT22;12544;46.760;15.942;2024-02-21T05:05:33;3.00;99.90
24412;DHT22;12544;46.760;15.942;2024-02-21T05:07:58;3.30;99.90
24412;DHT22;12544;46.760;15.942;2024-02-21T05:10:24;3.30;99.90
24412;DHT22;12544;46.760;15.942;2024-02-21T05:12:49;3.40;99.90
24412;DHT22;12544;46.760;15.942;2024-02-21T05:15:22;3.50;99.90
24412;DHT22;12544;46.760;15.942;2024-02-21T05:17:48;3.60;99.90
24412;DHT22;12544;46.760;15.942;2024-02-21T05:20:13;3.60;99.90
24412;DHT22;12544;46.760;15.942;2024-02-21T05:22:39;3.70;99.90
24412;DHT22;12544;46.760;15.942;2024-02-21T05:25:05;3.80;99.90
24412;DHT22;12544;46.760;15.942;2024-02-21T05:27:31;3.90;99.90
24412;DHT22;12544;46.760;15.942;2024-02-21T05:29:57;4.00;99.90
24412;DHT22;12544;46.760;15.942;2024-02-21T05:32:23;4.10;99.90
24412;DHT22;12544;46.760;15.942;2024-02-21T05:34:50;4.10;99.90
24412;DHT22;12544;46.760;15.942;2024-02-21T05:37:16;4.00;99.90
24412;DHT22;12544;46.760;15.942;2024-02-21T05:39:41;4.00;99.90
24412;DHT22;12544;46.760;15.942;2024-02-21T05:42:07;4.00;99.90
24412;DHT22;12544;46.760;15.942;2024-02-21T05:44:33;4.20;99.90
24412;DHT22;12544;46.760;15.942;2024-02-21T05:46:58;4.40;99.90
24412;DHT22;12544;46.760;15.942;2024-02-21T05:49:24;4.60;99.90
24412;DHT22;12544;46.760;15.942;2024-02-21T05:51:49;4.80;99.90
24412;DHT22;12544;46.760;15.942;2024-02-21T05:54:15;4.90;99.90
24412;DHT22;12544;46.760;15.942;2024-02-21T05:56:44;5.10;99.90
24412;DHT22;12544;46.760;15.942;2024-02-21T05:59:10;5.10;99.90
24412;DHT22;12544;46.760;15.942;2024-02-21T06:01:36;5.20;99.90
24412;DHT22;12544;46.760;15.942;2024-02-21T06:04:01;5.10;99.90
24412;DHT22;12544;46.760;15.942;2024-02-21T06:06:27;4.90;99.90
24412;DHT22;12544;46.760;15.942;2024-02-21T06:09:01;4.80;99.90
24412;DHT22;12544;46.760;15.942;2024-02-21T06:11:28;4.80;99.90
24412;DHT22;12544;46.760;15.942;2024-02-21T06:13:54;4.80;99.90
24412;DHT22;12544;46.760;15.942;2024-02-21T06:16:19;4.40;99.90
24412;DHT22;12544;46.760;15.942;2024-02-21T06:18:45;4.10;99.90
24412;DHT22;12544;46.760;15.942;2024-02-21T06:21:11;4.10;99.90
24412;DHT22;12544;46.760;15.942;2024-02-21T06:23:37;4.20;99.90
24412;DHT22;12544;46.760;15.942;2024-02-21T06:26:03;4.30;99.90
24412;DHT22;12544;46.760;15.942;2024-02-21T06:28:29;4.50;99.90
24412;DHT22;12544;46.760;15.942;2024-02-21T06:30:54;4.70;99.90
24412;DHT22;12544;46.760;15.942;2024-02-21T06:33:20;4.90;99.90
24412;DHT22;12544;46.760;15.942;2024-02-21T06:35:55;5.00;99.90
24412;DHT22;12544;46.760;15.942;2024-02-21T06:38:20;5.20;99.90
24412;DHT22;12544;46.760;15.942;2024-02-21T06:40:46;5.20;99.90
24412;DHT22;12544;46.760;15.942;2024-02-21T06:43:17;5.10;99.90
24412;DHT22;12544;46.760;15.942;2024-02-21T06:45:43;5.10;99.90
24412;DHT22;12544;46.760;15.942;2024-02-21T06:48:12;5.10;99.90
24412;DHT22;12544;46.760;15.942;2024-02-21T06:50:38;5.00;99.90
24412;DHT22;12544;46.760;15.942;2024-02-21T06:53:04;5.00;99.90
24412;DHT22;12544;46.760;15.942;2024-02-21T06:55:29;5.00;99.90
24412;DHT22;12544;46.760;15.942;2024-02-21T06:57:55;5.00;99.90
24412;DHT22;12544;46.760;15.942;2024-02-21T07:00:21;5.00;99.90
24412;DHT22;12544;46.760;15.942;2024-02-21T07:02:48;5.10;99.90
24412;DHT22;12544;46.760;15.942;2024-02-21T07:05:14;5.20;99.90
24412;DHT22;12544;46.760;15.942;2024-02-21T07:07:39;5.30;99.90
24412;DHT22;12544;46.760;15.942;2024-02-21T07:10:06;5.30;99.90
24412;DHT22;12544;46.760;15.942;2024-02-21T07:12:33;5.40;99.90
24412;DHT22;12544;46.760;15.942;2024-02-21T07:15:00;5.50;99.90
24412;DHT22;12544;46.760;15.942;2024-02-21T07:17:27;5.60;99.90
24412;DHT22;12544;46.760;15.942;2024-02-21T07:19:53;5.80;99.90
24412;DHT22;12544;46.760;15.942;2024-02-21T07:22:22;5.90;99.90
24412;DHT22;12544;46.760;15.942;2024-02-21T07:24:47;6.10;99.90
24412;DHT22;12544;46.760;15.942;2024-02-21T07:27:15;6.40;99.90
24412;DHT22;12544;46.760;15.942;2024-02-21T07:29:41;6.60;99.90
24412;DHT22;12544;46.760;15.942;2024-02-21T07:32:07;6.80;99.90
24412;DHT22;12544;46.760;15.942;2024-02-21T07:34:32;7.00;99.90
24412;DHT22;12544;46.760;15.942;2024-02-21T07:36:58;7.20;99.90
24412;DHT22;12544;46.760;15.942;2024-02-21T07:39:23;7.30;99.90
24412;DHT22;12544;46.760;15.942;2024-02-21T07:41:49;7.50;99.90
24412;DHT22;12544;46.760;15.942;2024-02-21T07:44:15;7.70;99.90
24412;DHT22;12544;46.760;15.942;2024-02-21T07:46:41;7.80;99.90
24412;DHT22;12544;46.760;15.942;2024-02-21T07:49:06;7.80;99.90
24412;DHT22;12544;46.760;15.942;2024-02-21T07:51:32;7.90;99.90
24412;DHT22;12544;46.760;15.942;2024-02-21T07:53:58;7.80;99.90
24412;DHT22;12544;46.760;15.942;2024-02-21T07:56:29;7.90;99.90
24412;DHT22;12544;46.760;15.942;2024-02-21T07:58:55;8.10;99.90
24412;DHT22;12544;46.760;15.942;2024-02-21T08:01:20;8.20;99.90
24412;DHT22;12544;46.760;15.942;2024-02-21T08:03:46;8.20;99.90
24412;DHT22;12544;46.760;15.942;2024-02-21T08:06:13;8.30;99.90
24412;DHT22;12544;46.760;15.942;2024-02-21T08:08:39;8.40;99.90
24412;DHT22;12544;46.760;15.942;2024-02-21T08:11:04;8.30;99.90
24412;DHT22;12544;46.760;15.942;2024-02-21T08:13:30;8.30;99.90
24412;DHT22;12544;46.760;15.942;2024-02-21T08:15:56;8.30;99.90
24412;DHT22;12544;46.760;15.942;2024-02-21T08:18:23;8.30;99.90
24412;DHT22;12544;46.760;15.942;2024-02-21T08:20:48;8.40;99.90
24412;DHT22;12544;46.760;15.942;2024-02-21T08:23:16;8.50;99.90
24412;DHT22;12544;46.760;15.942;2024-02-21T08:25:42;8.60;99.90
24412;DHT22;12544;46.760;15.942;2024-02-21T08:28:08;8.70;99.90
24412;DHT22;12544;46.760;15.942;2024-02-21T08:30:34;8.70;99.90
24412;DHT22;12544;46.760;15.942;2024-02-21T08:32:59;8.80;99.90
24412;DHT22;12544;46.760;15.942;2024-02-21T08:35:25;8.80;99.90
24412;DHT22;12544;46.760;15.942;2024-02-21T08:37:51;8.90;99.90
24412;DHT22;12544;46.760;15.942;2024-02-21T08:40:16;8.90;99.90
24412;DHT22;12544;46.760;15.942;2024-02-21T08:42:47;9.00;99.90
24412;DHT22;12544;46.760;15.942;2024-02-21T08:45:13;9.00;99.90
24412;DHT22;12544;46.760;15.942;2024-02-21T08:47:42;9.20;99.90
24412;DHT22;12544;46.760;15.942;2024-02-21T08:50:08;9.40;99.90
24412;DHT22;12544;46.760;15.942;2024-02-21T08:52:37;9.50;99.90
24412;DHT22;12544;46.760;15.942;2024-02-21T08:55:03;9.60;99.90
24412;DHT22;12544;46.760;15.942;2024-02-21T08:57:28;9.90;99.90
24412;DHT22;12544;46.760;15.942;2024-02-21T08:59:54;10.20;99.90
24412;DHT22;12544;46.760;15.942;2024-02-21T09:02:19;10.40;99.90
24412;DHT22;12544;46.760;15.942;2024-02-21T09:04:45;10.50;99.90
24412;DHT22;12544;46.760;15.942;2024-02-21T09:07:11;10.50;99.90
24412;DHT22;12544;46.760;15.942;2024-02-21T09:09:37;10.60;99.90
24412;DHT22;12544;46.760;15.942;2024-02-21T09:12:07;10.70;99.90
24412;DHT22;12544;46.760;15.942;2024-02-21T09:14:33;10.60;99.90
24412;DHT22;12544;46.760;15.942;2024-02-21T09:16:59;10.60;99.90
24412;DHT22;12544;46.760;15.942;2024-02-21T09:19:24;10.70;99.90
24412;DHT22;12544;46.760;15.942;2024-02-21T09:21:50;11.00;99.90
24412;DHT22;12544;46.760;15.942;2024-02-21T09:24:17;11.40;99.90
24412;DHT22;12544;46.760;15.942;2024-02-21T09:26:43;11.70;99.90
24412;DHT22;12544;46.760;15.942;2024-02-21T09:29:09;11.90;99.90
24412;DHT22;12544;46.760;15.942;2024-02-21T09:31:37;12.00;98.90
24412;DHT22;12544;46.760;15.942;2024-02-21T09:34:04;12.00;99.10
24412;DHT22;12544;46.760;15.942;2024-02-21T09:36:30;11.90;98.00
24412;DHT22;12544;46.760;15.942;2024-02-21T09:38:55;11.80;98.70
24412;DHT22;12544;46.760;15.942;2024-02-21T09:41:27;11.80;99.10
24412;DHT22;12544;46.760;15.942;2024-02-21T09:43:53;11.80;98.00
24412;DHT22;12544;46.760;15.942;2024-02-21T09:46:24;11.80;98.40
24412;DHT22;12544;46.760;15.942;2024-02-21T09:51:43;12.40;96.70
24412;DHT22;12544;46.760;15.942;2024-02-21T09:54:10;12.50;96.80
24412;DHT22;12544;46.760;15.942;2024-02-21T09:56:38;12.50;96.10
24412;DHT22;12544;46.760;15.942;2024-02-21T09:59:04;12.60;96.90
24412;DHT22;12544;46.760;15.942;2024-02-21T10:01:31;12.80;95.40
24412;DHT22;12544;46.760;15.942;2024-02-21T10:03:57;12.90;94.90
24412;DHT22;12544;46.760;15.942;2024-02-21T10:06:23;12.90;95.00
24412;DHT22;12544;46.760;15.942;2024-02-21T10:08:53;13.00;96.00
24412;DHT22;12544;46.760;15.942;2024-02-21T10:11:25;13.10;93.50
24412;DHT22;12544;46.760;15.942;2024-02-21T10:14:08;13.20;93.10
24412;DHT22;12544;46.760;15.942;2024-02-21T10:16:34;13.30;92.80
24412;DHT22;12544;46.760;15.942;2024-02-21T10:19:00;13.50;92.20
24412;DHT22;12544;46.760;15.942;2024-02-21T10:21:26;13.60;92.30
24412;DHT22;12544;46.760;15.942;2024-02-21T10:23:51;13.70;94.10
24412;DHT22;12544;46.760;15.942;2024-02-21T10:26:18;13.70;91.50
24412;DHT22;12544;46.760;15.942;2024-02-21T10:28:45;13.70;91.10
24412;DHT22;12544;46.760;15.942;2024-02-21T10:31:22;13.60;91.60
24412;DHT22;12544;46.760;15.942;2024-02-21T10:34:01;13.50;91.60
24412;DHT22;12544;46.760;15.942;2024-02-21T10:36:31;13.40;91.00
24412;DHT22;12544;46.760;15.942;2024-02-21T10:38:56;13.30;91.40
24412;DHT22;12544;46.760;15.942;2024-02-21T10:41:23;13.30;91.90
24412;DHT22;12544;46.760;15.942;2024-02-21T10:43:53;13.40;91.20
24412;DHT22;12544;46.760;15.942;2024-02-21T10:46:23;13.50;90.20
24412;DHT22;12544;46.760;15.942;2024-02-21T10:49:06;13.50;90.90
24412;DHT22;12544;46.760;15.942;2024-02-21T10:51:37;13.40;89.40
24412;DHT22;12544;46.760;15.942;2024-02-21T10:56:50;13.50;90.60
24412;DHT22;12544;46.760;15.942;2024-02-21T10:59:17;13.50;90.00
24412;DHT22;12544;46.760;15.942;2024-02-21T11:01:43;13.50;90.30
24412;DHT22;12544;46.760;15.942;2024-02-21T11:04:10;13.50;90.50
24412;DHT22;12544;46.760;15.942;2024-02-21T11:06:38;13.60;90.20
24412;DHT22;12544;46.760;15.942;2024-02-21T11:11:44;14.00;90.70
24412;DHT22;12544;46.760;15.942;2024-02-21T11:14:18;14.40;87.80
24412;DHT22;12544;46.760;15.942;2024-02-21T11:16:44;14.60;88.70
24412;DHT22;12544;46.760;15.942;2024-02-21T11:19:19;14.70;86.60
24412;DHT22;12544;46.760;15.942;2024-02-21T11:21:45;14.70;89.80
24412;DHT22;12544;46.760;15.942;2024-02-21T11:24:11;14.60;86.90
24412;DHT22;12544;46.760;15.942;2024-02-21T11:26:40;14.40;87.90
24412;DHT22;12544;46.760;15.942;2024-02-21T11:29:07;14.30;89.90
24412;DHT22;12544;46.760;15.942;2024-02-21T11:31:42;14.20;87.00
24412;DHT22;12544;46.760;15.942;2024-02-21T11:34:12;14.10;89.00
24412;DHT22;12544;46.760;15.942;2024-02-21T11:36:51;14.00;87.60
24412;DHT22;12544;46.760;15.942;2024-02-21T11:39:25;14.10;87.60
24412;DHT22;12544;46.760;15.942;2024-02-21T11:42:04;14.10;87.80
24412;DHT22;12544;46.760;15.942;2024-02-21T11:44:32;14.20;88.30
24412;DHT22;12544;46.760;15.942;2024-02-21T11:46:58;14.30;90.60
24412;DHT22;12544;46.760;15.942;2024-02-21T11:49:28;14.50;90.90
24412;DHT22;12544;46.760;15.942;2024-02-21T11:52:01;14.70;89.40
24412;DHT22;12544;46.760;15.942;2024-02-21T11:54:30;14.90;85.80
24412;DHT22;12544;46.760;15.942;2024-02-21T11:56:55;14.90;84.30
24412;DHT22;12544;46.760;15.942;2024-02-21T11:59:21;14.90;86.00
24412;DHT22;12544;46.760;15.942;2024-02-21T12:01:48;14.90;86.50
24412;DHT22;12544;46.760;15.942;2024-02-21T12:04:14;14.80;87.00
24412;DHT22;12544;46.760;15.942;2024-02-21T12:06:39;14.60;86.80
24412;DHT22;12544;46.760;15.942;2024-02-21T12:09:08;14.40;88.50
24412;DHT22;12544;46.760;15.942;2024-02-21T12:11:37;14.70;89.80
24412;DHT22;12544;46.760;15.942;2024-02-21T12:14:04;15.20;88.40
24412;DHT22;12544;46.760;15.942;2024-02-21T12:16:32;15.60;85.70
24412;DHT22;12544;46.760;15.942;2024-02-21T12:19:01;16.10;84.90
24412;DHT22;12544;46.760;15.942;2024-02-21T12:21:39;16.20;83.60
24412;DHT22;12544;46.760;15.942;2024-02-21T12:24:16;16.20;82.40
24412;DHT22;12544;46.760;15.942;2024-02-21T12:26:42;16.30;84.10
24412;DHT22;12544;46.760;15.942;2024-02-21T12:29:08;16.30;82.80
24412;DHT22;12544;46.760;15.942;2024-02-21T12:31:39;16.60;83.90
24412;DHT22;12544;46.760;15.942;2024-02-21T12:34:05;16.60;83.70
24412;DHT22;12544;46.760;15.942;2024-02-21T12:36:32;16.80;80.40
24412;DHT22;12544;46.760;15.942;2024-02-21T12:38:58;16.40;82.10
24412;DHT22;12544;46.760;15.942;2024-02-21T12:41:24;16.60;81.80
24412;DHT22;12544;46.760;15.942;2024-02-21T12:43:51;16.80;79.80
24412;DHT22;12544;46.760;15.942;2024-02-21T12:46:16;16.80;80.10
24412;DHT22;12544;46.760;15.942;2024-02-21T12:48:42;16.90;81.30
24412;DHT22;12544;46.760;15.942;2024-02-21T12:51:13;16.80;81.00
24412;DHT22;12544;46.760;15.942;2024-02-21T12:53:38;16.80;79.10
24412;DHT22;12544;46.760;15.942;2024-02-21T12:56:05;16.90;81.30
24412;DHT22;12544;46.760;15.942;2024-02-21T12:58:33;17.00;78.00
24412;DHT22;12544;46.760;15.942;2024-02-21T13:00:59;16.70;77.50
24412;DHT22;12544;46.760;15.942;2024-02-21T13:03:25;16.50;79.50
24412;DHT22;12544;46.760;15.942;2024-02-21T13:05:51;16.40;80.50
24412;DHT22;12544;46.760;15.942;2024-02-21T13:08:16;16.20;80.80
24412;DHT22;12544;46.760;15.942;2024-02-21T13:10:43;16.20;80.80
24412;DHT22;12544;46.760;15.942;2024-02-21T13:13:09;16.20;80.40
24412;DHT22;12544;46.760;15.942;2024-02-21T13:15:34;16.00;79.90
24412;DHT22;12544;46.760;15.942;2024-02-21T13:18:00;15.90;79.70
24412;DHT22;12544;46.760;15.942;2024-02-21T13:20:26;16.00;80.00
24412;DHT22;12544;46.760;15.942;2024-02-21T13:22:52;16.00;78.60
24412;DHT22;12544;46.760;15.942;2024-02-21T13:25:18;16.10;77.90
24412;DHT22;12544;46.760;15.942;2024-02-21T13:27:47;16.20;79.10
24412;DHT22;12544;46.760;15.942;2024-02-21T13:30:13;16.00;78.00
24412;DHT22;12544;46.760;15.942;2024-02-21T13:32:41;15.90;77.50
24412;DHT22;12544;46.760;15.942;2024-02-21T13:35:08;15.80;79.50
24412;DHT22;12544;46.760;15.942;2024-02-21T13:37:34;15.80;81.70
24412;DHT22;12544;46.760;15.942;2024-02-21T13:40:15;16.00;83.30
24412;DHT22;12544;46.760;15.942;2024-02-21T13:42:40;16.30;79.50
24412;DHT22;12544;46.760;15.942;2024-02-21T13:45:07;16.40;77.70
24412;DHT22;12544;46.760;15.942;2024-02-21T13:47:33;16.50;78.20
24412;DHT22;12544;46.760;15.942;2024-02-21T13:49:59;16.50;79.50
24412;DHT22;12544;46.760;15.942;2024-02-21T13:52:26;16.70;78.10
24412;DHT22;12544;46.760;15.942;2024-02-21T13:54:52;16.80;77.00
24412;DHT22;12544;46.760;15.942;2024-02-21T13:57:18;16.80;77.00
24412;DHT22;12544;46.760;15.942;2024-02-21T13:59:43;16.60;75.70
24412;DHT22;12544;46.760;15.942;2024-02-21T14:02:11;16.30;77.80
24412;DHT22;12544;46.760;15.942;2024-02-21T14:04:37;16.00;79.00
24412;DHT22;12544;46.760;15.942;2024-02-21T14:07:03;15.70;79.10
24412;DHT22;12544;46.760;15.942;2024-02-21T14:09:29;15.50;80.00
24412;DHT22;12544;46.760;15.942;2024-02-21T14:11:55;15.50;80.60
24412;DHT22;12544;46.760;15.942;2024-02-21T14:14:21;15.40;80.50
24412;DHT22;12544;46.760;15.942;2024-02-21T14:16:46;15.40;81.40
24412;DHT22;12544;46.760;15.942;2024-02-21T14:19:15;15.20;81.10
24412;DHT22;12544;46.760;15.942;2024-02-21T14:21:41;15.10;80.70
24412;DHT22;12544;46.760;15.942;2024-02-21T14:24:06;15.00;82.30
24412;DHT22;12544;46.760;15.942;2024-02-21T14:26:33;14.90;83.20
24412;DHT22;12544;46.760;15.942;2024-02-21T14:28:59;14.80;83.70
24412;DHT22;12544;46.760;15.942;2024-02-21T14:31:25;14.80;84.50
24412;DHT22;12544;46.760;15.942;2024-02-21T14:33:51;14.80;83.80
24412;DHT22;12544;46.760;15.942;2024-02-21T14:36:17;14.70;84.20
24412;DHT22;12544;46.760;15.942;2024-02-21T14:38:43;14.60;85.30
24412;DHT22;12544;46.760;15.942;2024-02-21T14:41:10;14.50;85.70
24412;DHT22;12544;46.760;15.942;2024-02-21T14:43:38;14.50;87.20
24412;DHT22;12544;46.760;15.942;2024-02-21T14:46:04;14.50;87.30
24412;DHT22;12544;46.760;15.942;2024-02-21T14:48:31;14.40;86.60
24412;DHT22;12544;46.760;15.942;2024-02-21T14:50:57;14.20;87.30
24412;DHT22;12544;46.760;15.942;2024-02-21T14:53:23;14.20;86.70
24412;DHT22;12544;46.760;15.942;2024-02-21T14:55:49;14.10;86.50
24412;DHT22;12544;46.760;15.942;2024-02-21T14:58:17;14.10;86.90
24412;DHT22;12544;46.760;15.942;2024-02-21T15:00:47;14.00;88.50
24412;DHT22;12544;46.760;15.942;2024-02-21T15:03:13;14.00;87.60
24412;DHT22;12544;46.760;15.942;2024-02-21T15:05:42;13.90;88.30
24412;DHT22;12544;46.760;15.942;2024-02-21T15:08:07;13.90;88.30
24412;DHT22;12544;46.760;15.942;2024-02-21T15:10:34;14.00;88.70
24412;DHT22;12544;46.760;15.942;2024-02-21T15:13:00;14.00;88.70
24412;DHT22;12544;46.760;15.942;2024-02-21T15:15:26;13.90;89.00
24412;DHT22;12544;46.760;15.942;2024-02-21T15:17:51;13.80;89.00
24412;DHT22;12544;46.760;15.942;2024-02-21T15:20:17;13.80;88.30
24412;DHT22;12544;46.760;15.942;2024-02-21T15:22:43;13.70;88.60
24412;DHT22;12544;46.760;15.942;2024-02-21T15:25:09;13.60;89.70
24412;DHT22;12544;46.760;15.942;2024-02-21T15:27:43;13.50;90.00
24412;DHT22;12544;46.760;15.942;2024-02-21T15:30:13;13.50;90.00
24412;DHT22;12544;46.760;15.942;2024-02-21T15:32:39;13.50;90.20
24412;DHT22;12544;46.760;15.942;2024-02-21T15:38:27;13.40;90.10
24412;DHT22;12544;46.760;15.942;2024-02-21T15:40:54;13.40;90.80
24412;DHT22;12544;46.760;15.942;2024-02-21T15:43:19;13.30;90.70
24412;DHT22;12544;46.760;15.942;2024-02-21T15:49:05;13.10;91.10
24412;DHT22;12544;46.760;15.942;2024-02-21T15:51:30;12.90;91.50
24412;DHT22;12544;46.760;15.942;2024-02-21T15:53:57;12.80;92.00
24412;DHT22;12544;46.760;15.942;2024-02-21T15:56:24;12.80;91.60